sensor_id;sensor_type;location;lat;lon;timestamp;P1;durP1;ratioP1;P2;durP2;ratioP2
68700;SDS011;55682;51.114;5.882;2023-02-26T00:01:15;3.32;;;3.16;;
68700;SDS011;55682;51.114;5.882;2023-02-26T00:03:43;3.16;;;3.04;;
68700;SDS011;55682;51.114;5.882;2023-02-26T00:06:09;3.32;;;3.19;;
68700;SDS011;55682;51.114;5.882;2023-02-26T00:08:34;3.35;;;3.24;;
68700;SDS011;55682;51.114;5.882;2023-02-26T00:11:00;3.13;;;3.12;;
68700;SDS011;55682;51.114;5.882;2023-02-26T00:13:27;2.97;;;2.97;;
68700;SDS011;55682;51.114;5.882;2023-02-26T00:15:58;3.21;;;3.17;;
68700;SDS011;55682;51.114;5.882;2023-02-26T00:18:25;3.14;;;3.07;;
68700;SDS011;55682;51.114;5.882;2023-02-26T00:20:51;3.04;;;2.97;;
68700;SDS011;55682;51.114;5.882;2023-02-26T00:23:17;3.27;;;3.20;;
68700;SDS011;55682;51.114;5.882;2023-02-26T00:25:43;3.17;;;3.08;;
68700;SDS011;55682;51.114;5.882;2023-02-26T00:28:10;3.15;;;3.05;;
68700;SDS011;55682;51.114;5.882;2023-02-26T00:30:37;3.28;;;3.18;;
68700;SDS011;55682;51.114;5.882;2023-02-26T00:33:04;3.26;;;3.19;;
68700;SDS011;55682;51.114;5.882;2023-02-26T00:35:30;3.10;;;3.04;;
68700;SDS011;55682;51.114;5.882;2023-02-26T00:43:05;3.02;;;3.00;;
68700;SDS011;55682;51.114;5.882;2023-02-26T00:45:33;2.83;;;2.80;;
68700;SDS011;55682;51.114;5.882;2023-02-26T00:50:47;3.19;;;3.13;;
68700;SDS011;55682;51.114;5.882;2023-02-26T00:53:26;3.28;;;3.20;;
68700;SDS011;55682;51.114;5.882;2023-02-26T00:55:57;3.15;;;3.10;;
68700;SDS011;55682;51.114;5.882;2023-02-26T00:58:23;2.97;;;2.95;;
68700;SDS011;55682;51.114;5.882;2023-02-26T01:00:48;3.06;;;3.05;;
68700;SDS011;55682;51.114;5.882;2023-02-26T01:03:14;2.87;;;2.84;;
68700;SDS011;55682;51.114;5.882;2023-02-26T01:05:40;3.28;;;3.21;;
68700;SDS011;55682;51.114;5.882;2023-02-26T01:10:57;2.98;;;2.88;;
68700;SDS011;55682;51.114;5.882;2023-02-26T01:13:23;3.33;;;3.22;;
68700;SDS011;55682;51.114;5.882;2023-02-26T01:15:51;2.77;;;2.73;;
68700;SDS011;55682;51.114;5.882;2023-02-26T01:18:30;3.18;;;3.15;;
68700;SDS011;55682;51.114;5.882;2023-02-26T01:21:07;2.99;;;2.99;;
68700;SDS011;55682;51.114;5.882;2023-02-26T01:23:40;2.90;;;2.88;;
68700;SDS011;55682;51.114;5.882;2023-02-26T01:26:14;2.88;;;2.84;;
68700;SDS011;55682;51.114;5.882;2023-02-26T01:28:47;2.81;;;2.76;;
68700;SDS011;55682;51.114;5.882;2023-02-26T01:31:25;3.13;;;3.06;;
68700;SDS011;55682;51.114;5.882;2023-02-26T01:34:21;2.77;;;2.72;;
68700;SDS011;55682;51.114;5.882;2023-02-26T01:37:20;3.12;;;3.03;;
68700;SDS011;55682;51.114;5.882;2023-02-26T01:43:02;3.23;;;3.17;;
68700;SDS011;55682;51.114;5.882;2023-02-26T01:45:38;3.11;;;3.08;;
68700;SDS011;55682;51.114;5.882;2023-02-26T01:48:36;2.96;;;2.92;;
68700;SDS011;55682;51.114;5.882;2023-02-26T01:51:12;3.11;;;3.07;;
68700;SDS011;55682;51.114;5.882;2023-02-26T01:53:37;2.97;;;2.88;;
68700;SDS011;55682;51.114;5.882;2023-02-26T01:56:05;3.13;;;3.06;;
68700;SDS011;55682;51.114;5.882;2023-02-26T01:58:41;3.10;;;3.02;;
68700;SDS011;55682;51.114;5.882;2023-02-26T02:01:12;2.77;;;2.71;;
68700;SDS011;55682;51.114;5.882;2023-02-26T02:03:38;3.29;;;3.19;;
68700;SDS011;55682;51.114;5.882;2023-02-26T02:06:07;3.08;;;3.00;;
68700;SDS011;55682;51.114;5.882;2023-02-26T02:08:38;3.18;;;3.11;;
68700;SDS011;55682;51.114;5.882;2023-02-26T02:11:06;3.08;;;3.00;;
68700;SDS011;55682;51.114;5.882;2023-02-26T02:16:29;3.19;;;3.10;;
68700;SDS011;55682;51.114;5.882;2023-02-26T02:19:14;3.11;;;3.02;;
68700;SDS011;55682;51.114;5.882;2023-02-26T02:22:24;3.02;;;2.98;;
68700;SDS011;55682;51.114;5.882;2023-02-26T02:32:58;2.83;;;2.78;;
68700;SDS011;55682;51.114;5.882;2023-02-26T02:35:53;2.89;;;2.83;;
68700;SDS011;55682;51.114;5.882;2023-02-26T02:38:31;2.89;;;2.84;;
68700;SDS011;55682;51.114;5.882;2023-02-26T02:41:22;2.65;;;2.60;;
68700;SDS011;55682;51.114;5.882;2023-02-26T02:43:55;2.74;;;2.71;;
68700;SDS011;55682;51.114;5.882;2023-02-26T02:46:27;2.45;;;2.42;;
68700;SDS011;55682;51.114;5.882;2023-02-26T02:48:58;2.68;;;2.63;;
68700;SDS011;55682;51.114;5.882;2023-02-26T02:51:36;2.68;;;2.56;;
68700;SDS011;55682;51.114;5.882;2023-02-26T02:54:21;2.55;;;2.44;;
68700;SDS011;55682;51.114;5.882;2023-02-26T02:57:03;2.62;;;2.46;;
68700;SDS011;55682;51.114;5.882;2023-02-26T02:59:43;2.99;;;2.80;;
68700;SDS011;55682;51.114;5.882;2023-02-26T03:04:53;2.69;;;2.57;;
68700;SDS011;55682;51.114;5.882;2023-02-26T03:07:18;2.48;;;2.40;;
68700;SDS011;55682;51.114;5.882;2023-02-26T03:09:50;2.63;;;2.57;;
68700;SDS011;55682;51.114;5.882;2023-02-26T03:12:16;2.29;;;2.26;;
68700;SDS011;55682;51.114;5.882;2023-02-26T03:14:43;2.22;;;2.18;;
68700;SDS011;55682;51.114;5.882;2023-02-26T03:25:39;1.94;;;1.93;;
68700;SDS011;55682;51.114;5.882;2023-02-26T03:33:46;1.81;;;1.77;;
68700;SDS011;55682;51.114;5.882;2023-02-26T03:36:31;2.15;;;2.07;;
68700;SDS011;55682;51.114;5.882;2023-02-26T03:41:48;2.07;;;1.99;;
68700;SDS011;55682;51.114;5.882;2023-02-26T03:44:30;2.01;;;1.93;;
68700;SDS011;55682;51.114;5.882;2023-02-26T03:47:05;2.10;;;2.00;;
68700;SDS011;55682;51.114;5.882;2023-02-26T03:49:43;2.08;;;2.00;;
68700;SDS011;55682;51.114;5.882;2023-02-26T03:52:11;1.82;;;1.77;;
68700;SDS011;55682;51.114;5.882;2023-02-26T03:54:42;1.89;;;1.88;;
68700;SDS011;55682;51.114;5.882;2023-02-26T03:57:38;2.01;;;1.97;;
68700;SDS011;55682;51.114;5.882;2023-02-26T04:00:16;1.99;;;1.95;;
68700;SDS011;55682;51.114;5.882;2023-02-26T04:02:47;1.92;;;1.87;;
68700;SDS011;55682;51.114;5.882;2023-02-26T04:05:17;1.95;;;1.89;;
68700;SDS011;55682;51.114;5.882;2023-02-26T04:07:48;2.14;;;2.08;;
68700;SDS011;55682;51.114;5.882;2023-02-26T04:10:15;1.96;;;1.91;;
68700;SDS011;55682;51.114;5.882;2023-02-26T04:12:46;1.84;;;1.83;;
68700;SDS011;55682;51.114;5.882;2023-02-26T04:15:12;2.02;;;2.02;;
68700;SDS011;55682;51.114;5.882;2023-02-26T04:17:39;2.26;;;2.21;;
68700;SDS011;55682;51.114;5.882;2023-02-26T04:20:06;2.12;;;2.05;;
68700;SDS011;55682;51.114;5.882;2023-02-26T04:22:34;2.22;;;2.14;;
68700;SDS011;55682;51.114;5.882;2023-02-26T04:25:00;2.16;;;2.08;;
68700;SDS011;55682;51.114;5.882;2023-02-26T04:27:26;2.08;;;2.02;;
68700;SDS011;55682;51.114;5.882;2023-02-26T04:29:52;1.97;;;1.91;;
68700;SDS011;55682;51.114;5.882;2023-02-26T04:32:17;2.24;;;2.19;;
68700;SDS011;55682;51.114;5.882;2023-02-26T04:34:43;2.18;;;2.11;;
68700;SDS011;55682;51.114;5.882;2023-02-26T04:37:09;2.35;;;2.27;;
68700;SDS011;55682;51.114;5.882;2023-02-26T04:39:36;1.92;;;1.87;;
68700;SDS011;55682;51.114;5.882;2023-02-26T04:42:02;2.18;;;2.13;;
68700;SDS011;55682;51.114;5.882;2023-02-26T04:44:29;2.06;;;2.01;;
68700;SDS011;55682;51.114;5.882;2023-02-26T04:46:55;2.23;;;2.20;;
68700;SDS011;55682;51.114;5.882;2023-02-26T04:49:21;2.17;;;2.13;;
68700;SDS011;55682;51.114;5.882;2023-02-26T04:51:47;2.10;;;2.07;;
68700;SDS011;55682;51.114;5.882;2023-02-26T04:54:14;2.16;;;2.12;;
68700;SDS011;55682;51.114;5.882;2023-02-26T04:56:40;2.24;;;2.18;;
68700;SDS011;55682;51.114;5.882;2023-02-26T04:59:06;2.13;;;2.08;;
68700;SDS011;55682;51.114;5.882;2023-02-26T05:01:33;2.08;;;2.05;;
68700;SDS011;55682;51.114;5.882;2023-02-26T05:04:00;2.02;;;2.01;;
68700;SDS011;55682;51.114;5.882;2023-02-26T05:06:25;1.92;;;1.92;;
68700;SDS011;55682;51.114;5.882;2023-02-26T05:08:51;2.13;;;2.13;;
68700;SDS011;55682;51.114;5.882;2023-02-26T05:11:17;2.09;;;2.09;;
68700;SDS011;55682;51.114;5.882;2023-02-26T05:13:43;2.05;;;2.05;;
68700;SDS011;55682;51.114;5.882;2023-02-26T05:16:09;1.91;;;1.91;;
68700;SDS011;55682;51.114;5.882;2023-02-26T05:18:35;1.81;;;1.81;;
68700;SDS011;55682;51.114;5.882;2023-02-26T05:21:00;1.77;;;1.77;;
68700;SDS011;55682;51.114;5.882;2023-02-26T05:23:27;1.84;;;1.84;;
68700;SDS011;55682;51.114;5.882;2023-02-26T05:25:56;2.02;;;2.01;;
68700;SDS011;55682;51.114;5.882;2023-02-26T05:28:23;2.17;;;2.12;;
68700;SDS011;55682;51.114;5.882;2023-02-26T05:30:50;1.91;;;1.90;;
68700;SDS011;55682;51.114;5.882;2023-02-26T05:33:16;1.89;;;1.87;;
68700;SDS011;55682;51.114;5.882;2023-02-26T05:35:42;1.95;;;1.92;;
68700;SDS011;55682;51.114;5.882;2023-02-26T05:38:09;2.27;;;2.20;;
68700;SDS011;55682;51.114;5.882;2023-02-26T05:40:35;1.92;;;1.86;;
68700;SDS011;55682;51.114;5.882;2023-02-26T05:43:00;1.85;;;1.78;;
68700;SDS011;55682;51.114;5.882;2023-02-26T05:45:26;1.86;;;1.81;;
68700;SDS011;55682;51.114;5.882;2023-02-26T05:47:51;1.68;;;1.65;;
68700;SDS011;55682;51.114;5.882;2023-02-26T05:50:17;1.76;;;1.72;;
68700;SDS011;55682;51.114;5.882;2023-02-26T05:52:43;1.83;;;1.79;;
68700;SDS011;55682;51.114;5.882;2023-02-26T05:55:08;1.80;;;1.76;;
68700;SDS011;55682;51.114;5.882;2023-02-26T05:57:34;1.79;;;1.75;;
68700;SDS011;55682;51.114;5.882;2023-02-26T06:00:00;1.81;;;1.77;;
68700;SDS011;55682;51.114;5.882;2023-02-26T06:02:26;2.07;;;1.99;;
68700;SDS011;55682;51.114;5.882;2023-02-26T06:04:51;2.08;;;1.98;;
68700;SDS011;55682;51.114;5.882;2023-02-26T06:07:17;1.98;;;1.89;;
68700;SDS011;55682;51.114;5.882;2023-02-26T06:09:43;1.96;;;1.87;;
68700;SDS011;55682;51.114;5.882;2023-02-26T06:12:08;2.02;;;1.95;;
68700;SDS011;55682;51.114;5.882;2023-02-26T06:14:34;2.03;;;1.96;;
68700;SDS011;55682;51.114;5.882;2023-02-26T06:17:01;1.89;;;1.82;;
68700;SDS011;55682;51.114;5.882;2023-02-26T06:19:31;1.98;;;1.89;;
68700;SDS011;55682;51.114;5.882;2023-02-26T06:21:57;1.96;;;1.87;;
68700;SDS011;55682;51.114;5.882;2023-02-26T06:24:22;1.90;;;1.82;;
68700;SDS011;55682;51.114;5.882;2023-02-26T06:26:48;2.13;;;2.06;;
68700;SDS011;55682;51.114;5.882;2023-02-26T06:29:14;2.16;;;2.09;;
68700;SDS011;55682;51.114;5.882;2023-02-26T06:31:39;1.71;;;1.67;;
68700;SDS011;55682;51.114;5.882;2023-02-26T06:34:05;1.88;;;1.86;;
68700;SDS011;55682;51.114;5.882;2023-02-26T06:36:30;1.91;;;1.88;;
68700;SDS011;55682;51.114;5.882;2023-02-26T06:38:56;1.83;;;1.80;;
68700;SDS011;55682;51.114;5.882;2023-02-26T06:41:22;1.97;;;1.92;;
68700;SDS011;55682;51.114;5.882;2023-02-26T06:43:47;1.80;;;1.76;;
68700;SDS011;55682;51.114;5.882;2023-02-26T06:46:13;1.78;;;1.76;;
68700;SDS011;55682;51.114;5.882;2023-02-26T06:48:38;1.73;;;1.71;;
68700;SDS011;55682;51.114;5.882;2023-02-26T06:51:04;1.84;;;1.83;;
68700;SDS011;55682;51.114;5.882;2023-02-26T06:53:30;2.02;;;1.99;;
68700;SDS011;55682;51.114;5.882;2023-02-26T06:55:55;1.99;;;1.95;;
68700;SDS011;55682;51.114;5.882;2023-02-26T06:58:21;1.89;;;1.85;;
68700;SDS011;55682;51.114;5.882;2023-02-26T07:00:48;1.78;;;1.72;;
68700;SDS011;55682;51.114;5.882;2023-02-26T07:03:15;1.96;;;1.86;;
68700;SDS011;55682;51.114;5.882;2023-02-26T07:05:42;2.07;;;1.95;;
68700;SDS011;55682;51.114;5.882;2023-02-26T07:08:09;1.97;;;1.85;;
68700;SDS011;55682;51.114;5.882;2023-02-26T07:10:35;2.13;;;1.99;;
68700;SDS011;55682;51.114;5.882;2023-02-26T07:13:02;2.28;;;2.12;;
68700;SDS011;55682;51.114;5.882;2023-02-26T07:15:28;2.63;;;2.40;;
68700;SDS011;55682;51.114;5.882;2023-02-26T07:17:54;2.41;;;2.21;;
68700;SDS011;55682;51.114;5.882;2023-02-26T07:20:19;2.29;;;2.15;;
68700;SDS011;55682;51.114;5.882;2023-02-26T07:22:47;1.97;;;1.87;;
68700;SDS011;55682;51.114;5.882;2023-02-26T07:25:12;2.06;;;1.98;;
68700;SDS011;55682;51.114;5.882;2023-02-26T07:27:39;2.01;;;1.95;;
68700;SDS011;55682;51.114;5.882;2023-02-26T07:30:05;1.85;;;1.85;;
68700;SDS011;55682;51.114;5.882;2023-02-26T07:32:31;1.99;;;1.95;;
68700;SDS011;55682;51.114;5.882;2023-02-26T07:34:57;2.10;;;1.99;;
68700;SDS011;55682;51.114;5.882;2023-02-26T07:37:23;2.15;;;2.05;;
68700;SDS011;55682;51.114;5.882;2023-02-26T07:39:49;1.97;;;1.88;;
68700;SDS011;55682;51.114;5.882;2023-02-26T07:42:14;1.82;;;1.74;;
68700;SDS011;55682;51.114;5.882;2023-02-26T07:44:41;1.70;;;1.64;;
68700;SDS011;55682;51.114;5.882;2023-02-26T07:47:06;1.85;;;1.80;;
68700;SDS011;55682;51.114;5.882;2023-02-26T07:49:33;1.62;;;1.59;;
68700;SDS011;55682;51.114;5.882;2023-02-26T07:51:59;1.64;;;1.60;;
68700;SDS011;55682;51.114;5.882;2023-02-26T07:54:25;1.75;;;1.69;;
68700;SDS011;55682;51.114;5.882;2023-02-26T07:56:51;1.69;;;1.63;;
68700;SDS011;55682;51.114;5.882;2023-02-26T07:59:16;1.60;;;1.54;;
68700;SDS011;55682;51.114;5.882;2023-02-26T08:01:42;1.51;;;1.47;;
68700;SDS011;55682;51.114;5.882;2023-02-26T08:04:08;1.81;;;1.78;;
68700;SDS011;55682;51.114;5.882;2023-02-26T08:06:34;1.65;;;1.61;;
68700;SDS011;55682;51.114;5.882;2023-02-26T08:08:59;1.77;;;1.73;;
68700;SDS011;55682;51.114;5.882;2023-02-26T08:11:26;2.02;;;1.95;;
68700;SDS011;55682;51.114;5.882;2023-02-26T08:13:52;1.61;;;1.55;;
68700;SDS011;55682;51.114;5.882;2023-02-26T08:16:18;1.68;;;1.62;;
68700;SDS011;55682;51.114;5.882;2023-02-26T08:18:44;1.60;;;1.53;;
68700;SDS011;55682;51.114;5.882;2023-02-26T08:21:10;1.59;;;1.51;;
68700;SDS011;55682;51.114;5.882;2023-02-26T08:23:36;1.62;;;1.55;;
68700;SDS011;55682;51.114;5.882;2023-02-26T08:26:03;1.61;;;1.52;;
68700;SDS011;55682;51.114;5.882;2023-02-26T08:28:31;1.55;;;1.46;;
68700;SDS011;55682;51.114;5.882;2023-02-26T08:30:58;1.57;;;1.50;;
68700;SDS011;55682;51.114;5.882;2023-02-26T08:33:25;1.58;;;1.52;;
68700;SDS011;55682;51.114;5.882;2023-02-26T08:35:51;1.60;;;1.55;;
68700;SDS011;55682;51.114;5.882;2023-02-26T08:38:18;1.44;;;1.39;;
68700;SDS011;55682;51.114;5.882;2023-02-26T08:40:44;1.60;;;1.53;;
68700;SDS011;55682;51.114;5.882;2023-02-26T08:43:12;1.55;;;1.47;;
68700;SDS011;55682;51.114;5.882;2023-02-26T08:45:38;1.51;;;1.45;;
68700;SDS011;55682;51.114;5.882;2023-02-26T08:48:04;1.49;;;1.43;;
68700;SDS011;55682;51.114;5.882;2023-02-26T08:50:30;1.26;;;1.22;;
68700;SDS011;55682;51.114;5.882;2023-02-26T08:52:55;1.40;;;1.35;;
68700;SDS011;55682;51.114;5.882;2023-02-26T08:55:21;1.44;;;1.38;;
68700;SDS011;55682;51.114;5.882;2023-02-26T08:57:47;1.47;;;1.41;;
68700;SDS011;55682;51.114;5.882;2023-02-26T09:00:13;1.38;;;1.33;;
68700;SDS011;55682;51.114;5.882;2023-02-26T09:02:41;1.46;;;1.40;;
68700;SDS011;55682;51.114;5.882;2023-02-26T09:05:07;1.36;;;1.30;;
68700;SDS011;55682;51.114;5.882;2023-02-26T09:07:34;1.40;;;1.34;;
68700;SDS011;55682;51.114;5.882;2023-02-26T09:10:00;1.40;;;1.33;;
68700;SDS011;55682;51.114;5.882;2023-02-26T09:12:25;1.55;;;1.47;;
68700;SDS011;55682;51.114;5.882;2023-02-26T09:14:51;1.48;;;1.41;;
68700;SDS011;55682;51.114;5.882;2023-02-26T09:17:17;1.59;;;1.50;;
68700;SDS011;55682;51.114;5.882;2023-02-26T09:19:43;1.29;;;1.22;;
68700;SDS011;55682;51.114;5.882;2023-02-26T09:22:08;1.23;;;1.17;;
68700;SDS011;55682;51.114;5.882;2023-02-26T09:24:34;1.46;;;1.40;;
68700;SDS011;55682;51.114;5.882;2023-02-26T09:27:00;1.57;;;1.50;;
68700;SDS011;55682;51.114;5.882;2023-02-26T09:29:27;1.45;;;1.39;;
68700;SDS011;55682;51.114;5.882;2023-02-26T09:31:53;1.38;;;1.36;;
68700;SDS011;55682;51.114;5.882;2023-02-26T09:34:19;1.38;;;1.36;;
68700;SDS011;55682;51.114;5.882;2023-02-26T09:36:45;1.13;;;1.11;;
68700;SDS011;55682;51.114;5.882;2023-02-26T09:39:11;1.10;;;1.07;;
68700;SDS011;55682;51.114;5.882;2023-02-26T09:41:40;0.97;;;0.95;;
68700;SDS011;55682;51.114;5.882;2023-02-26T09:46:52;0.93;;;0.92;;
68700;SDS011;55682;51.114;5.882;2023-02-26T09:49:24;1.14;;;1.12;;
68700;SDS011;55682;51.114;5.882;2023-02-26T09:52:10;0.93;;;0.91;;
68700;SDS011;55682;51.114;5.882;2023-02-26T09:54:46;1.07;;;1.03;;
68700;SDS011;55682;51.114;5.882;2023-02-26T09:57:26;0.85;;;0.82;;
68700;SDS011;55682;51.114;5.882;2023-02-26T10:00:03;0.85;;;0.83;;
68700;SDS011;55682;51.114;5.882;2023-02-26T10:03:27;0.96;;;0.93;;
68700;SDS011;55682;51.114;5.882;2023-02-26T10:05:39;0.98;;;0.95;;
68700;SDS011;55682;51.114;5.882;2023-02-26T10:08:14;1.08;;;1.03;;
68700;SDS011;55682;51.114;5.882;2023-02-26T10:16:12;1.00;;;0.98;;
68700;SDS011;55682;51.114;5.882;2023-02-26T10:18:44;0.96;;;0.94;;
68700;SDS011;55682;51.114;5.882;2023-02-26T10:23:56;0.83;;;0.80;;
68700;SDS011;55682;51.114;5.882;2023-02-26T10:26:27;0.71;;;0.69;;
68700;SDS011;55682;51.114;5.882;2023-02-26T10:29:06;0.82;;;0.79;;
68700;SDS011;55682;51.114;5.882;2023-02-26T10:32:01;0.85;;;0.81;;
68700;SDS011;55682;51.114;5.882;2023-02-26T10:42:50;0.67;;;0.64;;
68700;SDS011;55682;51.114;5.882;2023-02-26T10:51:37;0.73;;;0.69;;
68700;SDS011;55682;51.114;5.882;2023-02-26T10:53:54;0.78;;;0.73;;
68700;SDS011;55682;51.114;5.882;2023-02-26T10:56:29;0.97;;;0.90;;
68700;SDS011;55682;51.114;5.882;2023-02-26T10:58:57;0.71;;;0.65;;
68700;SDS011;55682;51.114;5.882;2023-02-26T11:01:24;0.76;;;0.70;;
68700;SDS011;55682;51.114;5.882;2023-02-26T11:03:55;0.74;;;0.68;;
68700;SDS011;55682;51.114;5.882;2023-02-26T11:06:30;1.02;;;0.92;;
68700;SDS011;55682;51.114;5.882;2023-02-26T11:09:00;0.88;;;0.80;;
68700;SDS011;55682;51.114;5.882;2023-02-26T11:14:17;0.77;;;0.72;;
68700;SDS011;55682;51.114;5.882;2023-02-26T11:16:47;1.05;;;0.97;;
68700;SDS011;55682;51.114;5.882;2023-02-26T11:19:16;0.89;;;0.82;;
68700;SDS011;55682;51.114;5.882;2023-02-26T11:21:51;1.15;;;1.07;;
68700;SDS011;55682;51.114;5.882;2023-02-26T11:24:20;1.13;;;1.05;;
68700;SDS011;55682;51.114;5.882;2023-02-26T11:26:53;0.90;;;0.85;;
68700;SDS011;55682;51.114;5.882;2023-02-26T11:29:20;0.88;;;0.83;;
68700;SDS011;55682;51.114;5.882;2023-02-26T11:31:52;1.01;;;0.96;;
68700;SDS011;55682;51.114;5.882;2023-02-26T11:34:22;0.98;;;0.94;;
68700;SDS011;55682;51.114;5.882;2023-02-26T11:36:50;0.83;;;0.78;;
68700;SDS011;55682;51.114;5.882;2023-02-26T11:39:21;0.72;;;0.69;;
68700;SDS011;55682;51.114;5.882;2023-02-26T11:41:52;0.66;;;0.64;;
68700;SDS011;55682;51.114;5.882;2023-02-26T11:44:42;0.83;;;0.82;;
68700;SDS011;55682;51.114;5.882;2023-02-26T11:49:40;0.82;;;0.79;;
68700;SDS011;55682;51.114;5.882;2023-02-26T11:54:36;0.92;;;0.90;;
68700;SDS011;55682;51.114;5.882;2023-02-26T11:57:06;0.90;;;0.90;;
68700;SDS011;55682;51.114;5.882;2023-02-26T11:59:42;0.90;;;0.89;;
68700;SDS011;55682;51.114;5.882;2023-02-26T12:02:14;1.05;;;1.02;;
68700;SDS011;55682;51.114;5.882;2023-02-26T12:04:45;1.03;;;0.99;;
68700;SDS011;55682;51.114;5.882;2023-02-26T12:07:15;0.88;;;0.87;;
68700;SDS011;55682;51.114;5.882;2023-02-26T12:09:42;1.05;;;1.04;;
68700;SDS011;55682;51.114;5.882;2023-02-26T12:20:34;0.98;;;0.97;;
68700;SDS011;55682;51.114;5.882;2023-02-26T12:26:32;0.80;;;0.79;;
68700;SDS011;55682;51.114;5.882;2023-02-26T12:29:19;0.77;;;0.76;;
68700;SDS011;55682;51.114;5.882;2023-02-26T12:31:58;0.79;;;0.79;;
68700;SDS011;55682;51.114;5.882;2023-02-26T12:34:45;1.05;;;1.04;;
68700;SDS011;55682;51.114;5.882;2023-02-26T12:40:31;0.95;;;0.92;;
68700;SDS011;55682;51.114;5.882;2023-02-26T12:49:22;0.90;;;0.88;;
68700;SDS011;55682;51.114;5.882;2023-02-26T12:55:13;0.59;;;0.58;;
68700;SDS011;55682;51.114;5.882;2023-02-26T13:00:54;0.74;;;0.73;;
68700;SDS011;55682;51.114;5.882;2023-02-26T13:06:43;0.91;;;0.89;;
68700;SDS011;55682;51.114;5.882;2023-02-26T13:17:33;0.95;;;0.95;;
68700;SDS011;55682;51.114;5.882;2023-02-26T13:20:23;1.16;;;1.16;;
68700;SDS011;55682;51.114;5.882;2023-02-26T13:22:52;1.00;;;1.00;;
68700;SDS011;55682;51.114;5.882;2023-02-26T13:25:42;0.92;;;0.92;;
68700;SDS011;55682;51.114;5.882;2023-02-26T13:28:29;0.82;;;0.82;;
68700;SDS011;55682;51.114;5.882;2023-02-26T13:31:16;0.81;;;0.81;;
68700;SDS011;55682;51.114;5.882;2023-02-26T13:34:06;0.65;;;0.65;;
68700;SDS011;55682;51.114;5.882;2023-02-26T13:36:41;0.71;;;0.71;;
68700;SDS011;55682;51.114;5.882;2023-02-26T13:41:46;0.87;;;0.87;;
68700;SDS011;55682;51.114;5.882;2023-02-26T13:50:02;0.94;;;0.94;;
68700;SDS011;55682;51.114;5.882;2023-02-26T13:52:34;0.90;;;0.90;;
68700;SDS011;55682;51.114;5.882;2023-02-26T13:55:01;0.93;;;0.93;;
68700;SDS011;55682;51.114;5.882;2023-02-26T14:02:47;1.00;;;1.00;;
68700;SDS011;55682;51.114;5.882;2023-02-26T14:10:46;0.96;;;0.96;;
68700;SDS011;55682;51.114;5.882;2023-02-26T14:13:21;1.00;;;1.00;;
68700;SDS011;55682;51.114;5.882;2023-02-26T14:18:53;1.11;;;1.11;;
68700;SDS011;55682;51.114;5.882;2023-02-26T14:24:14;1.02;;;1.02;;
68700;SDS011;55682;51.114;5.882;2023-02-26T14:26:49;0.92;;;0.92;;
68700;SDS011;55682;51.114;5.882;2023-02-26T14:32:28;0.95;;;0.95;;
68700;SDS011;55682;51.114;5.882;2023-02-26T14:34:54;0.97;;;0.97;;
68700;SDS011;55682;51.114;5.882;2023-02-26T14:37:30;1.01;;;1.01;;
68700;SDS011;55682;51.114;5.882;2023-02-26T14:40:09;1.07;;;1.07;;
68700;SDS011;55682;51.114;5.882;2023-02-26T14:42:48;0.95;;;0.95;;
68700;SDS011;55682;51.114;5.882;2023-02-26T14:45:25;1.07;;;1.07;;
68700;SDS011;55682;51.114;5.882;2023-02-26T14:47:55;1.14;;;1.14;;
68700;SDS011;55682;51.114;5.882;2023-02-26T14:50:25;0.96;;;0.96;;
68700;SDS011;55682;51.114;5.882;2023-02-26T14:53:08;0.91;;;0.91;;
68700;SDS011;55682;51.114;5.882;2023-02-26T15:04:13;0.79;;;0.79;;
68700;SDS011;55682;51.114;5.882;2023-02-26T15:18:06;1.01;;;1.01;;
68700;SDS011;55682;51.114;5.882;2023-02-26T15:23:46;0.88;;;0.88;;
68700;SDS011;55682;51.114;5.882;2023-02-26T15:26:23;0.93;;;0.93;;
68700;SDS011;55682;51.114;5.882;2023-02-26T15:28:51;1.02;;;1.00;;
68700;SDS011;55682;51.114;5.882;2023-02-26T15:31:20;0.95;;;0.94;;
68700;SDS011;55682;51.114;5.882;2023-02-26T15:33:54;0.75;;;0.73;;
68700;SDS011;55682;51.114;5.882;2023-02-26T15:36:20;0.94;;;0.93;;
68700;SDS011;55682;51.114;5.882;2023-02-26T15:38:49;0.92;;;0.92;;
68700;SDS011;55682;51.114;5.882;2023-02-26T15:41:19;0.98;;;0.98;;
68700;SDS011;55682;51.114;5.882;2023-02-26T15:43:49;0.84;;;0.84;;
68700;SDS011;55682;51.114;5.882;2023-02-26T15:46:22;0.99;;;0.99;;
68700;SDS011;55682;51.114;5.882;2023-02-26T15:48:55;0.89;;;0.89;;
68700;SDS011;55682;51.114;5.882;2023-02-26T15:51:26;0.88;;;0.88;;
68700;SDS011;55682;51.114;5.882;2023-02-26T15:53:53;0.94;;;0.94;;
68700;SDS011;55682;51.114;5.882;2023-02-26T15:56:23;0.80;;;0.80;;
68700;SDS011;55682;51.114;5.882;2023-02-26T15:59:12;0.96;;;0.96;;
68700;SDS011;55682;51.114;5.882;2023-02-26T16:01:47;0.95;;;0.95;;
68700;SDS011;55682;51.114;5.882;2023-02-26T16:04:16;0.90;;;0.90;;
68700;SDS011;55682;51.114;5.882;2023-02-26T16:06:45;0.95;;;0.94;;
68700;SDS011;55682;51.114;5.882;2023-02-26T16:09:15;0.74;;;0.73;;
68700;SDS011;55682;51.114;5.882;2023-02-26T16:11:52;0.90;;;0.89;;
68700;SDS011;55682;51.114;5.882;2023-02-26T16:14:23;0.89;;;0.88;;
68700;SDS011;55682;51.114;5.882;2023-02-26T16:16:55;0.87;;;0.86;;
68700;SDS011;55682;51.114;5.882;2023-02-26T16:19:31;0.97;;;0.96;;
68700;SDS011;55682;51.114;5.882;2023-02-26T16:22:07;1.11;;;1.09;;
68700;SDS011;55682;51.114;5.882;2023-02-26T16:24:38;1.14;;;1.12;;
68700;SDS011;55682;51.114;5.882;2023-02-26T16:27:04;1.11;;;1.09;;
68700;SDS011;55682;51.114;5.882;2023-02-26T16:29:35;1.04;;;1.02;;
68700;SDS011;55682;51.114;5.882;2023-02-26T16:32:02;1.04;;;1.03;;
68700;SDS011;55682;51.114;5.882;2023-02-26T16:34:34;0.96;;;0.94;;
68700;SDS011;55682;51.114;5.882;2023-02-26T16:42:35;1.02;;;1.00;;
68700;SDS011;55682;51.114;5.882;2023-02-26T16:48:04;1.09;;;1.06;;
68700;SDS011;55682;51.114;5.882;2023-02-26T16:50:40;1.17;;;1.12;;
68700;SDS011;55682;51.114;5.882;2023-02-26T16:53:07;1.18;;;1.13;;
68700;SDS011;55682;51.114;5.882;2023-02-26T16:55:42;1.13;;;1.10;;
68700;SDS011;55682;51.114;5.882;2023-02-26T16:58:15;1.07;;;1.03;;
68700;SDS011;55682;51.114;5.882;2023-02-26T17:00:43;1.21;;;1.17;;
68700;SDS011;55682;51.114;5.882;2023-02-26T17:03:12;1.09;;;1.06;;
68700;SDS011;55682;51.114;5.882;2023-02-26T17:05:43;1.23;;;1.20;;
68700;SDS011;55682;51.114;5.882;2023-02-26T17:08:16;1.14;;;1.12;;
68700;SDS011;55682;51.114;5.882;2023-02-26T17:10:45;1.10;;;1.08;;
68700;SDS011;55682;51.114;5.882;2023-02-26T17:15:49;1.22;;;1.19;;
68700;SDS011;55682;51.114;5.882;2023-02-26T17:18:18;1.19;;;1.16;;
68700;SDS011;55682;51.114;5.882;2023-02-26T17:20:45;1.18;;;1.16;;
68700;SDS011;55682;51.114;5.882;2023-02-26T17:23:15;1.25;;;1.24;;
68700;SDS011;55682;51.114;5.882;2023-02-26T17:25:43;1.33;;;1.31;;
68700;SDS011;55682;51.114;5.882;2023-02-26T17:28:16;1.38;;;1.35;;
68700;SDS011;55682;51.114;5.882;2023-02-26T17:30:51;1.32;;;1.29;;
68700;SDS011;55682;51.114;5.882;2023-02-26T17:33:17;1.29;;;1.26;;
68700;SDS011;55682;51.114;5.882;2023-02-26T17:35:43;1.21;;;1.19;;
68700;SDS011;55682;51.114;5.882;2023-02-26T17:38:10;1.35;;;1.32;;
68700;SDS011;55682;51.114;5.882;2023-02-26T17:40:38;1.40;;;1.38;;
68700;SDS011;55682;51.114;5.882;2023-02-26T17:43:05;1.21;;;1.19;;
68700;SDS011;55682;51.114;5.882;2023-02-26T17:45:33;1.23;;;1.22;;
68700;SDS011;55682;51.114;5.882;2023-02-26T17:47:59;1.32;;;1.31;;
68700;SDS011;55682;51.114;5.882;2023-02-26T17:53:11;1.31;;;1.31;;
68700;SDS011;55682;51.114;5.882;2023-02-26T17:55:37;1.31;;;1.30;;
68700;SDS011;55682;51.114;5.882;2023-02-26T17:58:09;1.23;;;1.22;;
68700;SDS011;55682;51.114;5.882;2023-02-26T18:00:43;1.55;;;1.54;;
68700;SDS011;55682;51.114;5.882;2023-02-26T18:03:13;1.90;;;1.90;;
68700;SDS011;55682;51.114;5.882;2023-02-26T18:05:40;1.74;;;1.74;;
68700;SDS011;55682;51.114;5.882;2023-02-26T18:08:14;1.50;;;1.49;;